sensor_id;sensor_type;location;lat;lon;timestamp;P1;durP1;ratioP1;P2;durP2;ratioP2
13204;SDS011;6667;52.634;9.226;2023-02-22T00:00:53;28.33;;;14.00;;
13204;SDS011;6667;52.634;9.226;2023-02-22T00:03:24;25.63;;;13.57;;
13204;SDS011;6667;52.634;9.226;2023-02-22T00:05:53;26.37;;;14.73;;
13204;SDS011;6667;52.634;9.226;2023-02-22T00:08:23;30.37;;;15.50;;
13204;SDS011;6667;52.634;9.226;2023-02-22T00:10:54;29.33;;;14.90;;
13204;SDS011;6667;52.634;9.226;2023-02-22T00:13:21;29.80;;;15.67;;
13204;SDS011;6667;52.634;9.226;2023-02-22T00:15:48;29.77;;;14.93;;
13204;SDS011;6667;52.634;9.226;2023-02-22T00:18:15;32.97;;;16.47;;
13204;SDS011;6667;52.634;9.226;2023-02-22T00:20:43;28.13;;;14.53;;
13204;SDS011;6667;52.634;9.226;2023-02-22T00:23:12;28.57;;;14.03;;
13204;SDS011;6667;52.634;9.226;2023-02-22T00:25:44;26.23;;;15.03;;
13204;SDS011;6667;52.634;9.226;2023-02-22T00:28:11;25.30;;;14.00;;
13204;SDS011;6667;52.634;9.226;2023-02-22T00:30:39;27.63;;;14.47;;
13204;SDS011;6667;52.634;9.226;2023-02-22T00:33:07;30.53;;;14.73;;
13204;SDS011;6667;52.634;9.226;2023-02-22T00:35:35;26.77;;;13.97;;
13204;SDS011;6667;52.634;9.226;2023-02-22T00:38:02;31.77;;;14.40;;
13204;SDS011;6667;52.634;9.226;2023-02-22T00:40:30;25.53;;;14.13;;
13204;SDS011;6667;52.634;9.226;2023-02-22T00:42:59;28.03;;;15.33;;
13204;SDS011;6667;52.634;9.226;2023-02-22T00:45:28;29.13;;;13.47;;
13204;SDS011;6667;52.634;9.226;2023-02-22T00:47:55;28.10;;;15.03;;
13204;SDS011;6667;52.634;9.226;2023-02-22T00:50:23;27.83;;;14.53;;
13204;SDS011;6667;52.634;9.226;2023-02-22T00:52:52;24.67;;;13.40;;
13204;SDS011;6667;52.634;9.226;2023-02-22T00:55:21;26.53;;;13.90;;
13204;SDS011;6667;52.634;9.226;2023-02-22T00:57:50;27.93;;;13.70;;
13204;SDS011;6667;52.634;9.226;2023-02-22T01:00:19;32.93;;;15.13;;
13204;SDS011;6667;52.634;9.226;2023-02-22T01:02:47;27.17;;;13.63;;
13204;SDS011;6667;52.634;9.226;2023-02-22T01:05:15;27.97;;;14.50;;
13204;SDS011;6667;52.634;9.226;2023-02-22T01:07:42;30.73;;;14.60;;
13204;SDS011;6667;52.634;9.226;2023-02-22T01:10:10;24.27;;;13.73;;
13204;SDS011;6667;52.634;9.226;2023-02-22T01:12:37;26.70;;;13.97;;
13204;SDS011;6667;52.634;9.226;2023-02-22T01:15:04;31.80;;;15.17;;
13204;SDS011;6667;52.634;9.226;2023-02-22T01:17:35;30.27;;;14.77;;
13204;SDS011;6667;52.634;9.226;2023-02-22T01:20:03;28.60;;;15.20;;
13204;SDS011;6667;52.634;9.226;2023-02-22T01:22:34;30.27;;;15.07;;
13204;SDS011;6667;52.634;9.226;2023-02-22T01:25:01;28.07;;;13.93;;
13204;SDS011;6667;52.634;9.226;2023-02-22T01:27:30;25.70;;;13.80;;
13204;SDS011;6667;52.634;9.226;2023-02-22T01:29:56;27.00;;;13.53;;
13204;SDS011;6667;52.634;9.226;2023-02-22T01:32:23;26.80;;;13.13;;
13204;SDS011;6667;52.634;9.226;2023-02-22T01:34:52;31.60;;;15.90;;
13204;SDS011;6667;52.634;9.226;2023-02-22T01:37:20;25.37;;;14.90;;
13204;SDS011;6667;52.634;9.226;2023-02-22T01:39:47;29.10;;;14.23;;
13204;SDS011;6667;52.634;9.226;2023-02-22T01:42:13;27.53;;;14.47;;
13204;SDS011;6667;52.634;9.226;2023-02-22T01:44:40;27.17;;;13.80;;
13204;SDS011;6667;52.634;9.226;2023-02-22T01:47:07;25.40;;;13.63;;
13204;SDS011;6667;52.634;9.226;2023-02-22T01:49:34;28.43;;;14.37;;
13204;SDS011;6667;52.634;9.226;2023-02-22T01:52:06;28.73;;;13.67;;
13204;SDS011;6667;52.634;9.226;2023-02-22T01:54:36;23.37;;;12.93;;
13204;SDS011;6667;52.634;9.226;2023-02-22T01:57:09;24.37;;;13.40;;
13204;SDS011;6667;52.634;9.226;2023-02-22T01:59:43;26.43;;;13.70;;
13204;SDS011;6667;52.634;9.226;2023-02-22T02:02:13;23.50;;;12.10;;
13204;SDS011;6667;52.634;9.226;2023-02-22T02:04:41;25.30;;;13.57;;
13204;SDS011;6667;52.634;9.226;2023-02-22T02:07:10;24.00;;;12.30;;
13204;SDS011;6667;52.634;9.226;2023-02-22T02:09:41;27.73;;;12.87;;
13204;SDS011;6667;52.634;9.226;2023-02-22T02:12:13;24.57;;;11.87;;
13204;SDS011;6667;52.634;9.226;2023-02-22T02:14:42;20.27;;;10.73;;
13204;SDS011;6667;52.634;9.226;2023-02-22T02:17:09;24.13;;;11.87;;
13204;SDS011;6667;52.634;9.226;2023-02-22T02:19:40;26.00;;;13.07;;
13204;SDS011;6667;52.634;9.226;2023-02-22T02:22:25;20.67;;;10.87;;
13204;SDS011;6667;52.634;9.226;2023-02-22T02:31:38;20.43;;;10.80;;
13204;SDS011;6667;52.634;9.226;2023-02-22T02:34:30;19.97;;;9.63;;
13204;SDS011;6667;52.634;9.226;2023-02-22T02:37:02;19.93;;;10.17;;
13204;SDS011;6667;52.634;9.226;2023-02-22T02:39:37;20.30;;;9.90;;
13204;SDS011;6667;52.634;9.226;2023-02-22T02:42:11;23.37;;;11.97;;
13204;SDS011;6667;52.634;9.226;2023-02-22T02:44:43;19.63;;;10.23;;
13204;SDS011;6667;52.634;9.226;2023-02-22T02:47:14;23.87;;;11.83;;
13204;SDS011;6667;52.634;9.226;2023-02-22T02:49:49;21.83;;;11.30;;
13204;SDS011;6667;52.634;9.226;2023-02-22T02:52:21;23.40;;;11.37;;
13204;SDS011;6667;52.634;9.226;2023-02-22T02:54:50;21.70;;;10.93;;
13204;SDS011;6667;52.634;9.226;2023-02-22T02:57:17;21.93;;;10.47;;
13204;SDS011;6667;52.634;9.226;2023-02-22T02:59:44;25.77;;;10.97;;
13204;SDS011;6667;52.634;9.226;2023-02-22T03:02:16;21.10;;;11.83;;
13204;SDS011;6667;52.634;9.226;2023-02-22T03:04:58;22.43;;;10.80;;
13204;SDS011;6667;52.634;9.226;2023-02-22T03:07:43;20.33;;;10.53;;
13204;SDS011;6667;52.634;9.226;2023-02-22T03:10:18;23.20;;;10.57;;
13204;SDS011;6667;52.634;9.226;2023-02-22T03:12:54;21.13;;;11.40;;
13204;SDS011;6667;52.634;9.226;2023-02-22T03:15:31;21.80;;;10.93;;
13204;SDS011;6667;52.634;9.226;2023-02-22T03:18:04;19.07;;;10.03;;
13204;SDS011;6667;52.634;9.226;2023-02-22T03:20:38;22.37;;;11.00;;
13204;SDS011;6667;52.634;9.226;2023-02-22T03:23:10;22.70;;;11.73;;
13204;SDS011;6667;52.634;9.226;2023-02-22T03:25:49;22.50;;;11.37;;
13204;SDS011;6667;52.634;9.226;2023-02-22T03:28:19;23.77;;;11.10;;
13204;SDS011;6667;52.634;9.226;2023-02-22T03:30:51;19.80;;;10.20;;
13204;SDS011;6667;52.634;9.226;2023-02-22T03:33:22;21.63;;;10.47;;
13204;SDS011;6667;52.634;9.226;2023-02-22T03:35:59;21.50;;;11.47;;
13204;SDS011;6667;52.634;9.226;2023-02-22T03:38:32;28.70;;;14.00;;
13204;SDS011;6667;52.634;9.226;2023-02-22T03:41:02;29.43;;;14.13;;
13204;SDS011;6667;52.634;9.226;2023-02-22T03:43:31;26.00;;;11.67;;
13204;SDS011;6667;52.634;9.226;2023-02-22T03:46:03;25.43;;;12.53;;
13204;SDS011;6667;52.634;9.226;2023-02-22T03:48:34;21.73;;;11.43;;
13204;SDS011;6667;52.634;9.226;2023-02-22T03:51:05;24.00;;;12.80;;
13204;SDS011;6667;52.634;9.226;2023-02-22T03:53:32;27.87;;;13.07;;
13204;SDS011;6667;52.634;9.226;2023-02-22T03:56:01;29.13;;;13.63;;
13204;SDS011;6667;52.634;9.226;2023-02-22T03:58:31;29.80;;;15.43;;
13204;SDS011;6667;52.634;9.226;2023-02-22T04:01:00;35.53;;;15.77;;
13204;SDS011;6667;52.634;9.226;2023-02-22T04:03:27;28.63;;;14.70;;
13204;SDS011;6667;52.634;9.226;2023-02-22T04:05:54;31.23;;;15.60;;
13204;SDS011;6667;52.634;9.226;2023-02-22T04:08:22;32.03;;;15.20;;
13204;SDS011;6667;52.634;9.226;2023-02-22T04:10:48;30.87;;;15.27;;
13204;SDS011;6667;52.634;9.226;2023-02-22T04:13:15;32.20;;;15.77;;
13204;SDS011;6667;52.634;9.226;2023-02-22T04:15:42;34.87;;;15.63;;
13204;SDS011;6667;52.634;9.226;2023-02-22T04:18:08;32.10;;;15.40;;
13204;SDS011;6667;52.634;9.226;2023-02-22T04:20:35;31.93;;;15.50;;
13204;SDS011;6667;52.634;9.226;2023-02-22T04:23:02;31.37;;;15.00;;
13204;SDS011;6667;52.634;9.226;2023-02-22T04:25:30;35.43;;;15.93;;
13204;SDS011;6667;52.634;9.226;2023-02-22T04:27:56;32.40;;;15.27;;
13204;SDS011;6667;52.634;9.226;2023-02-22T04:30:23;34.13;;;15.10;;
13204;SDS011;6667;52.634;9.226;2023-02-22T04:32:50;37.37;;;16.27;;
13204;SDS011;6667;52.634;9.226;2023-02-22T04:35:16;38.63;;;15.83;;
13204;SDS011;6667;52.634;9.226;2023-02-22T04:37:43;37.10;;;16.87;;
13204;SDS011;6667;52.634;9.226;2023-02-22T04:40:10;36.33;;;15.03;;
13204;SDS011;6667;52.634;9.226;2023-02-22T04:42:38;31.93;;;14.63;;
13204;SDS011;6667;52.634;9.226;2023-02-22T04:45:06;38.60;;;16.17;;
13204;SDS011;6667;52.634;9.226;2023-02-22T04:47:33;36.90;;;16.33;;
13204;SDS011;6667;52.634;9.226;2023-02-22T04:50:00;36.50;;;15.63;;
13204;SDS011;6667;52.634;9.226;2023-02-22T04:52:26;41.43;;;17.13;;
13204;SDS011;6667;52.634;9.226;2023-02-22T04:54:53;33.77;;;14.60;;
13204;SDS011;6667;52.634;9.226;2023-02-22T04:57:20;34.73;;;15.03;;
13204;SDS011;6667;52.634;9.226;2023-02-22T04:59:48;33.90;;;14.60;;
13204;SDS011;6667;52.634;9.226;2023-02-22T05:02:15;33.90;;;14.87;;
13204;SDS011;6667;52.634;9.226;2023-02-22T05:04:42;31.77;;;14.20;;
13204;SDS011;6667;52.634;9.226;2023-02-22T05:07:09;30.23;;;14.10;;
13204;SDS011;6667;52.634;9.226;2023-02-22T05:09:35;33.53;;;13.87;;
13204;SDS011;6667;52.634;9.226;2023-02-22T05:12:02;34.37;;;14.43;;
13204;SDS011;6667;52.634;9.226;2023-02-22T05:14:29;35.03;;;15.50;;
13204;SDS011;6667;52.634;9.226;2023-02-22T05:16:57;38.07;;;15.93;;
13204;SDS011;6667;52.634;9.226;2023-02-22T05:19:24;31.83;;;14.70;;
13204;SDS011;6667;52.634;9.226;2023-02-22T05:21:51;32.03;;;15.77;;
13204;SDS011;6667;52.634;9.226;2023-02-22T05:24:17;37.17;;;15.00;;
13204;SDS011;6667;52.634;9.226;2023-02-22T05:26:44;37.07;;;15.03;;
13204;SDS011;6667;52.634;9.226;2023-02-22T05:29:11;32.03;;;14.93;;
13204;SDS011;6667;52.634;9.226;2023-02-22T05:31:38;28.70;;;13.47;;
13204;SDS011;6667;52.634;9.226;2023-02-22T05:34:07;32.63;;;13.63;;
13204;SDS011;6667;52.634;9.226;2023-02-22T05:36:34;30.13;;;14.23;;
13204;SDS011;6667;52.634;9.226;2023-02-22T05:39:00;25.90;;;12.80;;
13204;SDS011;6667;52.634;9.226;2023-02-22T05:41:27;29.80;;;13.83;;
13204;SDS011;6667;52.634;9.226;2023-02-22T05:43:54;35.10;;;14.43;;
13204;SDS011;6667;52.634;9.226;2023-02-22T05:46:21;29.00;;;13.57;;
13204;SDS011;6667;52.634;9.226;2023-02-22T05:48:47;25.97;;;12.63;;
13204;SDS011;6667;52.634;9.226;2023-02-22T05:51:15;34.57;;;12.93;;
13204;SDS011;6667;52.634;9.226;2023-02-22T05:53:43;31.13;;;13.77;;
13204;SDS011;6667;52.634;9.226;2023-02-22T05:56:10;30.83;;;14.83;;
13204;SDS011;6667;52.634;9.226;2023-02-22T05:58:37;28.60;;;14.07;;
13204;SDS011;6667;52.634;9.226;2023-02-22T06:01:03;30.60;;;13.97;;
13204;SDS011;6667;52.634;9.226;2023-02-22T06:03:30;30.17;;;14.77;;
13204;SDS011;6667;52.634;9.226;2023-02-22T06:05:57;29.13;;;15.60;;
13204;SDS011;6667;52.634;9.226;2023-02-22T06:08:25;31.17;;;13.77;;
13204;SDS011;6667;52.634;9.226;2023-02-22T06:10:51;28.47;;;13.40;;
13204;SDS011;6667;52.634;9.226;2023-02-22T06:13:18;32.43;;;14.60;;
13204;SDS011;6667;52.634;9.226;2023-02-22T06:15:45;28.40;;;12.53;;
13204;SDS011;6667;52.634;9.226;2023-02-22T06:18:11;31.17;;;14.40;;
13204;SDS011;6667;52.634;9.226;2023-02-22T06:20:38;31.93;;;15.33;;
13204;SDS011;6667;52.634;9.226;2023-02-22T06:23:05;32.03;;;14.40;;
13204;SDS011;6667;52.634;9.226;2023-02-22T06:25:33;33.27;;;14.83;;
13204;SDS011;6667;52.634;9.226;2023-02-22T06:28:00;31.57;;;15.13;;
13204;SDS011;6667;52.634;9.226;2023-02-22T06:30:28;33.33;;;15.57;;
13204;SDS011;6667;52.634;9.226;2023-02-22T06:32:55;33.67;;;14.80;;
13204;SDS011;6667;52.634;9.226;2023-02-22T06:35:22;29.07;;;15.17;;
13204;SDS011;6667;52.634;9.226;2023-02-22T06:37:49;34.03;;;15.47;;
13204;SDS011;6667;52.634;9.226;2023-02-22T06:40:16;31.00;;;14.83;;
13204;SDS011;6667;52.634;9.226;2023-02-22T06:42:45;35.43;;;14.73;;
13204;SDS011;6667;52.634;9.226;2023-02-22T06:45:12;33.60;;;13.97;;
13204;SDS011;6667;52.634;9.226;2023-02-22T06:47:39;31.23;;;15.33;;
13204;SDS011;6667;52.634;9.226;2023-02-22T06:50:06;30.37;;;14.37;;
13204;SDS011;6667;52.634;9.226;2023-02-22T06:52:42;31.90;;;14.60;;
13204;SDS011;6667;52.634;9.226;2023-02-22T06:55:09;35.37;;;14.13;;
13204;SDS011;6667;52.634;9.226;2023-02-22T06:57:35;30.03;;;13.73;;
13204;SDS011;6667;52.634;9.226;2023-02-22T07:00:03;31.03;;;15.00;;
13204;SDS011;6667;52.634;9.226;2023-02-22T07:02:31;32.00;;;14.50;;
13204;SDS011;6667;52.634;9.226;2023-02-22T07:04:57;35.57;;;15.30;;
13204;SDS011;6667;52.634;9.226;2023-02-22T07:07:24;27.40;;;13.57;;
13204;SDS011;6667;52.634;9.226;2023-02-22T07:09:51;33.93;;;13.07;;
13204;SDS011;6667;52.634;9.226;2023-02-22T07:12:17;31.37;;;14.03;;
13204;SDS011;6667;52.634;9.226;2023-02-22T07:14:44;30.93;;;15.10;;
13204;SDS011;6667;52.634;9.226;2023-02-22T07:17:12;29.40;;;13.63;;
13204;SDS011;6667;52.634;9.226;2023-02-22T07:19:38;35.60;;;14.70;;
13204;SDS011;6667;52.634;9.226;2023-02-22T07:22:05;38.53;;;14.00;;
13204;SDS011;6667;52.634;9.226;2023-02-22T07:24:32;55.00;;;28.57;;
13204;SDS011;6667;52.634;9.226;2023-02-22T07:26:59;36.50;;;20.23;;
13204;SDS011;6667;52.634;9.226;2023-02-22T07:29:26;50.47;;;23.73;;
13204;SDS011;6667;52.634;9.226;2023-02-22T07:31:52;31.43;;;16.40;;
13204;SDS011;6667;52.634;9.226;2023-02-22T07:34:20;36.43;;;17.63;;
13204;SDS011;6667;52.634;9.226;2023-02-22T07:36:47;40.43;;;17.50;;
13204;SDS011;6667;52.634;9.226;2023-02-22T07:39:13;40.73;;;16.60;;
13204;SDS011;6667;52.634;9.226;2023-02-22T07:41:40;40.77;;;16.80;;
13204;SDS011;6667;52.634;9.226;2023-02-22T07:44:07;36.03;;;16.23;;
13204;SDS011;6667;52.634;9.226;2023-02-22T07:46:33;43.17;;;17.07;;
13204;SDS011;6667;52.634;9.226;2023-02-22T07:49:00;38.83;;;14.77;;
13204;SDS011;6667;52.634;9.226;2023-02-22T07:51:28;43.77;;;17.87;;
13204;SDS011;6667;52.634;9.226;2023-02-22T07:53:55;45.60;;;17.30;;
13204;SDS011;6667;52.634;9.226;2023-02-22T07:56:21;37.60;;;15.97;;
13204;SDS011;6667;52.634;9.226;2023-02-22T07:58:48;42.67;;;16.63;;
13204;SDS011;6667;52.634;9.226;2023-02-22T08:01:15;39.63;;;16.73;;
13204;SDS011;6667;52.634;9.226;2023-02-22T08:03:41;39.00;;;16.63;;
13204;SDS011;6667;52.634;9.226;2023-02-22T08:06:11;47.93;;;17.90;;
13204;SDS011;6667;52.634;9.226;2023-02-22T08:08:39;47.13;;;18.00;;
13204;SDS011;6667;52.634;9.226;2023-02-22T08:11:06;37.97;;;16.43;;
13204;SDS011;6667;52.634;9.226;2023-02-22T08:13:33;46.27;;;17.33;;
13204;SDS011;6667;52.634;9.226;2023-02-22T08:16:01;44.50;;;17.37;;
13204;SDS011;6667;52.634;9.226;2023-02-22T08:18:28;48.13;;;17.90;;
13204;SDS011;6667;52.634;9.226;2023-02-22T08:20:55;45.10;;;17.90;;
13204;SDS011;6667;52.634;9.226;2023-02-22T08:23:22;47.77;;;21.10;;
13204;SDS011;6667;52.634;9.226;2023-02-22T08:25:52;46.27;;;18.10;;
13204;SDS011;6667;52.634;9.226;2023-02-22T08:28:20;40.87;;;17.27;;
13204;SDS011;6667;52.634;9.226;2023-02-22T08:30:48;44.73;;;17.50;;
13204;SDS011;6667;52.634;9.226;2023-02-22T08:33:16;50.63;;;19.30;;
13204;SDS011;6667;52.634;9.226;2023-02-22T08:35:44;43.27;;;18.97;;
13204;SDS011;6667;52.634;9.226;2023-02-22T08:38:17;39.83;;;18.70;;
13204;SDS011;6667;52.634;9.226;2023-02-22T08:40:46;45.97;;;20.13;;
13204;SDS011;6667;52.634;9.226;2023-02-22T08:43:14;53.57;;;20.47;;
13204;SDS011;6667;52.634;9.226;2023-02-22T08:45:41;47.70;;;18.17;;
13204;SDS011;6667;52.634;9.226;2023-02-22T08:48:09;47.20;;;19.77;;
13204;SDS011;6667;52.634;9.226;2023-02-22T08:50:36;44.00;;;20.13;;
13204;SDS011;6667;52.634;9.226;2023-02-22T08:53:03;54.70;;;20.87;;
13204;SDS011;6667;52.634;9.226;2023-02-22T08:55:31;52.97;;;20.97;;
13204;SDS011;6667;52.634;9.226;2023-02-22T08:57:59;52.03;;;20.23;;
13204;SDS011;6667;52.634;9.226;2023-02-22T09:00:29;48.10;;;19.53;;
13204;SDS011;6667;52.634;9.226;2023-02-22T09:02:57;47.50;;;20.93;;
13204;SDS011;6667;52.634;9.226;2023-02-22T09:05:24;43.63;;;18.67;;
13204;SDS011;6667;52.634;9.226;2023-02-22T09:07:51;40.70;;;17.23;;
13204;SDS011;6667;52.634;9.226;2023-02-22T09:10:19;44.23;;;19.13;;
13204;SDS011;6667;52.634;9.226;2023-02-22T09:12:49;39.23;;;19.53;;
13204;SDS011;6667;52.634;9.226;2023-02-22T09:15:16;43.53;;;17.63;;
13204;SDS011;6667;52.634;9.226;2023-02-22T09:17:45;38.63;;;17.33;;
13204;SDS011;6667;52.634;9.226;2023-02-22T09:20:12;42.07;;;17.23;;
13204;SDS011;6667;52.634;9.226;2023-02-22T09:22:42;29.83;;;15.77;;
13204;SDS011;6667;52.634;9.226;2023-02-22T09:25:10;26.67;;;15.60;;
13204;SDS011;6667;52.634;9.226;2023-02-22T09:27:37;30.40;;;15.23;;
13204;SDS011;6667;52.634;9.226;2023-02-22T09:30:04;27.00;;;14.73;;
13204;SDS011;6667;52.634;9.226;2023-02-22T09:32:35;27.20;;;13.73;;
13204;SDS011;6667;52.634;9.226;2023-02-22T09:35:04;25.23;;;13.23;;
13204;SDS011;6667;52.634;9.226;2023-02-22T09:37:32;24.40;;;12.40;;
13204;SDS011;6667;52.634;9.226;2023-02-22T09:39:59;24.87;;;12.77;;
13204;SDS011;6667;52.634;9.226;2023-02-22T09:42:27;23.10;;;12.90;;
13204;SDS011;6667;52.634;9.226;2023-02-22T09:44:58;26.07;;;12.93;;
13204;SDS011;6667;52.634;9.226;2023-02-22T09:47:33;23.13;;;12.50;;
13204;SDS011;6667;52.634;9.226;2023-02-22T09:50:06;25.67;;;13.20;;
13204;SDS011;6667;52.634;9.226;2023-02-22T09:52:40;23.83;;;13.33;;
13204;SDS011;6667;52.634;9.226;2023-02-22T09:55:16;24.30;;;12.53;;
13204;SDS011;6667;52.634;9.226;2023-02-22T09:57:55;24.83;;;13.27;;
13204;SDS011;6667;52.634;9.226;2023-02-22T10:00:26;21.30;;;11.43;;
13204;SDS011;6667;52.634;9.226;2023-02-22T10:02:59;20.00;;;11.13;;
13204;SDS011;6667;52.634;9.226;2023-02-22T10:05:39;21.67;;;12.30;;
13204;SDS011;6667;52.634;9.226;2023-02-22T10:08:09;22.37;;;12.43;;
13204;SDS011;6667;52.634;9.226;2023-02-22T10:10:38;22.80;;;11.60;;
13204;SDS011;6667;52.634;9.226;2023-02-22T10:13:11;20.30;;;11.93;;
13204;SDS011;6667;52.634;9.226;2023-02-22T10:15:45;22.77;;;13.30;;
13204;SDS011;6667;52.634;9.226;2023-02-22T10:21:11;22.83;;;12.13;;
13204;SDS011;6667;52.634;9.226;2023-02-22T10:23:49;20.17;;;11.80;;
13204;SDS011;6667;52.634;9.226;2023-02-22T10:26:22;22.77;;;11.93;;
13204;SDS011;6667;52.634;9.226;2023-02-22T10:28:53;21.30;;;12.27;;
13204;SDS011;6667;52.634;9.226;2023-02-22T10:31:24;20.90;;;11.77;;
13204;SDS011;6667;52.634;9.226;2023-02-22T10:33:54;20.53;;;12.13;;
13204;SDS011;6667;52.634;9.226;2023-02-22T10:36:26;20.93;;;11.00;;
13204;SDS011;6667;52.634;9.226;2023-02-22T10:38:54;23.40;;;12.87;;
13204;SDS011;6667;52.634;9.226;2023-02-22T10:41:25;18.67;;;11.60;;
13204;SDS011;6667;52.634;9.226;2023-02-22T10:43:54;20.47;;;12.60;;
13204;SDS011;6667;52.634;9.226;2023-02-22T10:46:21;21.37;;;11.27;;
13204;SDS011;6667;52.634;9.226;2023-02-22T10:48:51;21.47;;;12.30;;
13204;SDS011;6667;52.634;9.226;2023-02-22T10:51:20;22.87;;;12.33;;
13204;SDS011;6667;52.634;9.226;2023-02-22T10:53:52;20.37;;;11.43;;
13204;SDS011;6667;52.634;9.226;2023-02-22T10:56:24;19.87;;;11.90;;
13204;SDS011;6667;52.634;9.226;2023-02-22T10:58:54;20.97;;;12.23;;
13204;SDS011;6667;52.634;9.226;2023-02-22T11:01:27;19.13;;;11.17;;
13204;SDS011;6667;52.634;9.226;2023-02-22T11:04:02;20.80;;;11.13;;
13204;SDS011;6667;52.634;9.226;2023-02-22T11:06:36;17.90;;;10.77;;
13204;SDS011;6667;52.634;9.226;2023-02-22T11:09:06;19.23;;;11.60;;
13204;SDS011;6667;52.634;9.226;2023-02-22T11:11:36;22.67;;;12.80;;
13204;SDS011;6667;52.634;9.226;2023-02-22T11:14:03;19.97;;;11.30;;
13204;SDS011;6667;52.634;9.226;2023-02-22T11:16:31;25.17;;;11.50;;
13204;SDS011;6667;52.634;9.226;2023-02-22T11:19:02;20.93;;;12.07;;
13204;SDS011;6667;52.634;9.226;2023-02-22T11:21:41;19.97;;;10.63;;
13204;SDS011;6667;52.634;9.226;2023-02-22T11:24:10;21.10;;;10.60;;
13204;SDS011;6667;52.634;9.226;2023-02-22T11:26:40;18.30;;;11.67;;
13204;SDS011;6667;52.634;9.226;2023-02-22T11:29:09;18.87;;;10.97;;
13204;SDS011;6667;52.634;9.226;2023-02-22T11:31:40;20.47;;;11.50;;
13204;SDS011;6667;52.634;9.226;2023-02-22T11:34:23;18.27;;;11.23;;
13204;SDS011;6667;52.634;9.226;2023-02-22T11:36:55;19.30;;;10.13;;
13204;SDS011;6667;52.634;9.226;2023-02-22T11:39:26;21.80;;;11.60;;
13204;SDS011;6667;52.634;9.226;2023-02-22T11:41:58;20.97;;;11.93;;
13204;SDS011;6667;52.634;9.226;2023-02-22T11:44:45;17.00;;;10.50;;
13204;SDS011;6667;52.634;9.226;2023-02-22T11:47:12;20.87;;;12.53;;
13204;SDS011;6667;52.634;9.226;2023-02-22T11:49:39;20.27;;;10.73;;
13204;SDS011;6667;52.634;9.226;2023-02-22T11:52:13;20.17;;;11.33;;
13204;SDS011;6667;52.634;9.226;2023-02-22T11:54:52;18.43;;;11.10;;
13204;SDS011;6667;52.634;9.226;2023-02-22T11:57:32;17.47;;;11.00;;
13204;SDS011;6667;52.634;9.226;2023-02-22T12:00:14;18.30;;;10.53;;
13204;SDS011;6667;52.634;9.226;2023-02-22T12:06:01;19.03;;;11.53;;
13204;SDS011;6667;52.634;9.226;2023-02-22T12:08:39;16.17;;;10.30;;
13204;SDS011;6667;52.634;9.226;2023-02-22T12:11:15;20.57;;;12.33;;
13204;SDS011;6667;52.634;9.226;2023-02-22T12:13:49;18.47;;;11.90;;
13204;SDS011;6667;52.634;9.226;2023-02-22T12:16:28;22.00;;;11.60;;
13204;SDS011;6667;52.634;9.226;2023-02-22T12:19:10;16.87;;;11.37;;
13204;SDS011;6667;52.634;9.226;2023-02-22T12:21:45;22.30;;;12.90;;
13204;SDS011;6667;52.634;9.226;2023-02-22T12:24:18;21.17;;;12.43;;
13204;SDS011;6667;52.634;9.226;2023-02-22T12:26:50;17.17;;;12.23;;
13204;SDS011;6667;52.634;9.226;2023-02-22T12:29:24;18.93;;;12.20;;
13204;SDS011;6667;52.634;9.226;2023-02-22T12:31:57;20.13;;;12.03;;
13204;SDS011;6667;52.634;9.226;2023-02-22T12:34:30;18.33;;;12.33;;
13204;SDS011;6667;52.634;9.226;2023-02-22T12:37:04;18.00;;;12.03;;
13204;SDS011;6667;52.634;9.226;2023-02-22T12:39:41;19.80;;;12.33;;
13204;SDS011;6667;52.634;9.226;2023-02-22T12:42:17;21.87;;;12.80;;
13204;SDS011;6667;52.634;9.226;2023-02-22T12:44:50;20.03;;;12.03;;
13204;SDS011;6667;52.634;9.226;2023-02-22T12:47:22;21.30;;;12.80;;
13204;SDS011;6667;52.634;9.226;2023-02-22T12:49:57;20.03;;;13.00;;
13204;SDS011;6667;52.634;9.226;2023-02-22T12:52:32;21.43;;;12.13;;
13204;SDS011;6667;52.634;9.226;2023-02-22T12:55:07;19.37;;;12.13;;
13204;SDS011;6667;52.634;9.226;2023-02-22T12:57:40;18.10;;;11.63;;
13204;SDS011;6667;52.634;9.226;2023-02-22T13:00:11;20.00;;;12.87;;
13204;SDS011;6667;52.634;9.226;2023-02-22T13:02:44;18.27;;;12.83;;
13204;SDS011;6667;52.634;9.226;2023-02-22T13:05:20;20.90;;;12.93;;
13204;SDS011;6667;52.634;9.226;2023-02-22T13:07:47;21.00;;;13.33;;
13204;SDS011;6667;52.634;9.226;2023-02-22T13:10:35;19.80;;;12.23;;
13204;SDS011;6667;52.634;9.226;2023-02-22T13:13:21;21.30;;;12.00;;
13204;SDS011;6667;52.634;9.226;2023-02-22T13:15:56;19.50;;;12.50;;
13204;SDS011;6667;52.634;9.226;2023-02-22T13:18:29;20.60;;;11.63;;
13204;SDS011;6667;52.634;9.226;2023-02-22T13:21:08;19.07;;;12.83;;
13204;SDS011;6667;52.634;9.226;2023-02-22T13:23:42;20.90;;;13.13;;
13204;SDS011;6667;52.634;9.226;2023-02-22T13:26:17;19.73;;;11.80;;
13204;SDS011;6667;52.634;9.226;2023-02-22T13:28:53;20.77;;;13.57;;
13204;SDS011;6667;52.634;9.226;2023-02-22T13:31:29;22.03;;;13.10;;
13204;SDS011;6667;52.634;9.226;2023-02-22T13:37:17;18.83;;;11.43;;
13204;SDS011;6667;52.634;9.226;2023-02-22T13:43:02;18.77;;;12.23;;
13204;SDS011;6667;52.634;9.226;2023-02-22T13:48:50;19.47;;;12.23;;
13204;SDS011;6667;52.634;9.226;2023-02-22T13:51:43;22.80;;;12.43;;
13204;SDS011;6667;52.634;9.226;2023-02-22T13:54:14;19.03;;;12.23;;
13204;SDS011;6667;52.634;9.226;2023-02-22T13:56:46;18.07;;;12.27;;
13204;SDS011;6667;52.634;9.226;2023-02-22T13:59:21;19.80;;;12.27;;
13204;SDS011;6667;52.634;9.226;2023-02-22T14:01:53;20.80;;;12.17;;
13204;SDS011;6667;52.634;9.226;2023-02-22T14:04:31;21.47;;;12.50;;
13204;SDS011;6667;52.634;9.226;2023-02-22T14:07:03;20.60;;;12.00;;
13204;SDS011;6667;52.634;9.226;2023-02-22T14:09:45;18.03;;;13.07;;
13204;SDS011;6667;52.634;9.226;2023-02-22T14:15:14;16.70;;;11.47;;
13204;SDS011;6667;52.634;9.226;2023-02-22T14:17:41;18.40;;;12.67;;
13204;SDS011;6667;52.634;9.226;2023-02-22T14:20:20;18.20;;;11.33;;
13204;SDS011;6667;52.634;9.226;2023-02-22T14:22:55;16.57;;;10.97;;
13204;SDS011;6667;52.634;9.226;2023-02-22T14:25:43;16.93;;;11.33;;
13204;SDS011;6667;52.634;9.226;2023-02-22T14:31:04;22.80;;;12.23;;
13204;SDS011;6667;52.634;9.226;2023-02-22T14:33:49;18.03;;;11.63;;
13204;SDS011;6667;52.634;9.226;2023-02-22T14:36:26;16.97;;;11.50;;
13204;SDS011;6667;52.634;9.226;2023-02-22T14:39:02;17.70;;;11.47;;
13204;SDS011;6667;52.634;9.226;2023-02-22T14:41:34;20.70;;;11.27;;
13204;SDS011;6667;52.634;9.226;2023-02-22T14:44:04;21.20;;;12.77;;
13204;SDS011;6667;52.634;9.226;2023-02-22T14:46:37;16.33;;;10.00;;
13204;SDS011;6667;52.634;9.226;2023-02-22T14:49:08;18.87;;;11.23;;
13204;SDS011;6667;52.634;9.226;2023-02-22T14:51:49;18.93;;;10.77;;
13204;SDS011;6667;52.634;9.226;2023-02-22T14:54:21;17.03;;;11.10;;
13204;SDS011;6667;52.634;9.226;2023-02-22T14:56:53;20.30;;;10.90;;
13204;SDS011;6667;52.634;9.226;2023-02-22T14:59:36;17.60;;;10.60;;
13204;SDS011;6667;52.634;9.226;2023-02-22T15:02:17;17.90;;;10.33;;
13204;SDS011;6667;52.634;9.226;2023-02-22T15:04:50;16.57;;;10.10;;
13204;SDS011;6667;52.634;9.226;2023-02-22T15:07:23;15.30;;;10.03;;
13204;SDS011;6667;52.634;9.226;2023-02-22T15:10:03;14.80;;;9.77;;
13204;SDS011;6667;52.634;9.226;2023-02-22T15:12:31;16.03;;;10.27;;
13204;SDS011;6667;52.634;9.226;2023-02-22T15:15:14;16.87;;;9.77;;
13204;SDS011;6667;52.634;9.226;2023-02-22T15:17:45;13.60;;;9.77;;
13204;SDS011;6667;52.634;9.226;2023-02-22T15:20:14;15.20;;;10.07;;
13204;SDS011;6667;52.634;9.226;2023-02-22T15:22:46;15.87;;;10.00;;